createdAt,value
2022-11-06T00:01:43.273Z,11.00
2022-11-06T00:04:10.553Z,10.90
2022-11-06T00:06:55.152Z,10.90
2022-11-06T00:09:22.275Z,10.90
2022-11-06T00:11:52.545Z,10.90
2022-11-06T00:14:24.355Z,10.90
2022-11-06T00:16:54.059Z,10.80
2022-11-06T00:19:24.412Z,10.80
2022-11-06T00:21:52.810Z,10.80
2022-11-06T00:24:23.600Z,10.80
2022-11-06T00:26:54.701Z,10.80
2022-11-06T00:29:27.043Z,10.80
2022-11-06T00:31:58.162Z,10.80
2022-11-06T00:34:25.614Z,10.80
2022-11-06T00:36:55.262Z,10.90
2022-11-06T00:39:22.604Z,10.90
2022-11-06T00:41:53.250Z,10.90
2022-11-06T00:44:25.578Z,11.00
2022-11-06T00:46:55.915Z,11.00
2022-11-06T00:49:26.779Z,11.00
2022-11-06T00:51:54.697Z,11.00
2022-11-06T00:54:25.068Z,11.00
2022-11-06T00:56:56.181Z,11.00
2022-11-06T00:59:27.386Z,11.00
2022-11-06T01:01:59.513Z,11.00
2022-11-06T01:04:30.356Z,11.10
2022-11-06T01:07:01.182Z,11.10
2022-11-06T01:09:31.588Z,11.10
2022-11-06T01:12:18.703Z,11.00
2022-11-06T01:14:48.263Z,11.00
2022-11-06T01:17:19.401Z,11.00
2022-11-06T01:19:49.185Z,11.00
2022-11-06T01:22:19.308Z,11.00
2022-11-06T01:24:48.796Z,11.00
2022-11-06T01:27:31.845Z,11.00
2022-11-06T01:30:02.803Z,11.00
2022-11-06T01:32:30.660Z,11.00
2022-11-06T01:35:01.376Z,11.00
2022-11-06T01:37:31.813Z,11.00
2022-11-06T01:40:02.306Z,11.00
2022-11-06T01:42:30.676Z,11.00
2022-11-06T01:45:24.102Z,11.00
2022-11-06T01:47:53.943Z,11.10
2022-11-06T01:50:23.016Z,11.00
2022-11-06T01:52:55.268Z,11.10
2022-11-06T01:55:33.126Z,11.10
2022-11-06T01:58:05.152Z,11.20
2022-11-06T02:00:35.162Z,11.10
2022-11-06T02:03:08.826Z,11.20
2022-11-06T02:05:38.747Z,11.20
2022-11-06T02:08:10.270Z,11.20
2022-11-06T02:10:39.910Z,11.20
2022-11-06T02:13:36.475Z,11.20
2022-11-06T02:16:23.258Z,11.30
2022-11-06T02:19:21.409Z,11.20
2022-11-06T02:22:32.200Z,11.30
2022-11-06T02:25:49.770Z,11.30
2022-11-06T02:28:42.433Z,11.30
2022-11-06T02:31:32.567Z,11.30
2022-11-06T02:34:19.880Z,11.30
2022-11-06T02:37:15.498Z,11.30
2022-11-06T02:39:47.548Z,11.30
2022-11-06T02:42:23.504Z,11.40
2022-11-06T02:44:59.183Z,11.30
2022-11-06T02:47:40.351Z,11.40
2022-11-06T02:50:25.838Z,11.30
2022-11-06T02:53:06.638Z,11.40
2022-11-06T02:55:51.559Z,11.40
2022-11-06T02:58:44.838Z,11.40
2022-11-06T03:01:28.340Z,11.40
2022-11-06T03:04:11.501Z,11.40
2022-11-06T03:06:55.904Z,11.40
2022-11-06T03:09:29.414Z,11.40
2022-11-06T03:12:44.580Z,11.30
2022-11-06T03:15:51.765Z,11.30
2022-11-06T03:18:30.703Z,11.30
2022-11-06T03:21:19.965Z,11.40
2022-11-06T03:23:56.859Z,11.40
2022-11-06T03:26:39.864Z,11.40
2022-11-06T03:29:24.479Z,11.40
2022-11-06T03:32:16.817Z,11.40
2022-11-06T03:34:55.251Z,11.30
2022-11-06T03:37:39.394Z,11.30
2022-11-06T03:40:14.550Z,11.30
2022-11-06T03:42:44.943Z,11.30
2022-11-06T03:45:26.651Z,11.30
2022-11-06T03:48:21.215Z,11.40
2022-11-06T03:51:00.541Z,11.40
2022-11-06T03:53:34.538Z,11.30
2022-11-06T03:56:32.760Z,11.40
2022-11-06T03:59:08.435Z,11.40
2022-11-06T04:01:44.891Z,11.40
2022-11-06T04:04:19.953Z,11.50
2022-11-06T04:07:09.760Z,11.60
2022-11-06T04:10:01.260Z,11.50
2022-11-06T04:12:54.804Z,11.50
2022-11-06T04:15:26.002Z,11.40
2022-11-06T04:17:56.191Z,11.40
2022-11-06T04:20:53.663Z,11.30
2022-11-06T04:23:53.102Z,11.30
2022-11-06T04:26:39.650Z,11.30
2022-11-06T04:29:42.406Z,11.40
2022-11-06T04:32:25.982Z,11.40
2022-11-06T04:35:17.860Z,11.50
2022-11-06T04:38:24.417Z,11.50
2022-11-06T04:41:13.610Z,11.50
2022-11-06T04:44:18.804Z,11.50
2022-11-06T04:46:55.043Z,11.50
2022-11-06T04:49:25.542Z,11.50
2022-11-06T04:51:56.183Z,11.50
2022-11-06T04:54:24.616Z,11.50
2022-11-06T04:57:00.593Z,11.50
2022-11-06T04:59:29.703Z,11.40
2022-11-06T05:01:57.115Z,11.50
2022-11-06T05:04:29.219Z,11.50
2022-11-06T05:06:56.932Z,11.50
2022-11-06T05:09:28.169Z,11.50
2022-11-06T05:11:59.039Z,11.50
2022-11-06T05:14:26.173Z,11.50
2022-11-06T05:16:54.901Z,11.50
2022-11-06T05:19:29.371Z,11.50
2022-11-06T05:22:21.066Z,11.50
2022-11-06T05:24:50.680Z,11.50
2022-11-06T05:27:18.521Z,11.50
2022-11-06T05:29:51.042Z,11.50
2022-11-06T05:32:20.824Z,11.40
2022-11-06T05:34:52.651Z,11.40
2022-11-06T05:37:20.188Z,11.50
2022-11-06T05:39:48.910Z,11.50
2022-11-06T05:42:18.506Z,11.50
2022-11-06T05:44:47.954Z,11.50
2022-11-06T05:47:18.518Z,11.50
2022-11-06T05:49:48.196Z,11.50
2022-11-06T05:52:17.241Z,11.50
2022-11-06T05:54:44.279Z,11.50
2022-11-06T05:57:11.545Z,11.50
2022-11-06T05:59:41.464Z,11.50
2022-11-06T06:02:10.705Z,11.50
2022-11-06T06:04:40.495Z,11.50
2022-11-06T06:07:10.618Z,11.60
2022-11-06T06:09:38.363Z,11.50
2022-11-06T06:12:06.564Z,11.60
2022-11-06T06:14:36.006Z,11.50
2022-11-06T06:17:06.519Z,11.60
2022-11-06T06:19:34.568Z,11.60
2022-11-06T06:22:02.012Z,11.60
2022-11-06T06:24:32.103Z,11.60
2022-11-06T06:27:01.798Z,11.70
2022-11-06T06:29:29.255Z,11.70
2022-11-06T06:31:58.154Z,11.60
2022-11-06T06:34:29.361Z,11.60
2022-11-06T06:36:57.340Z,11.60
2022-11-06T06:39:26.083Z,11.60
2022-11-06T06:41:57.787Z,11.50
2022-11-06T06:44:30.519Z,11.60
2022-11-06T06:47:00.656Z,11.60
2022-11-06T06:49:29.985Z,11.60
2022-11-06T06:51:58.046Z,11.60
2022-11-06T06:54:28.512Z,11.60
2022-11-06T06:56:57.826Z,11.60
2022-11-06T06:59:27.673Z,11.60
2022-11-06T07:01:57.757Z,11.60
2022-11-06T07:04:26.466Z,11.60
2022-11-06T07:06:55.754Z,11.60
2022-11-06T07:09:25.595Z,11.60
2022-11-06T07:11:55.554Z,11.60
2022-11-06T07:14:26.246Z,11.50
2022-11-06T07:16:58.395Z,11.50
2022-11-06T07:19:29.445Z,11.40
2022-11-06T07:21:58.255Z,11.50
2022-11-06T07:24:29.450Z,11.60
2022-11-06T07:26:57.024Z,11.60
2022-11-06T07:29:25.071Z,11.60
2022-11-06T07:31:53.027Z,11.60
2022-11-06T07:34:25.664Z,11.60
2022-11-06T07:36:55.562Z,11.60
2022-11-06T07:39:24.374Z,11.60
2022-11-06T07:41:55.199Z,11.70
2022-11-06T07:44:25.694Z,11.60
2022-11-06T07:46:55.637Z,11.60
2022-11-06T07:49:26.765Z,11.60
2022-11-06T07:51:54.458Z,11.70
2022-11-06T07:54:24.001Z,11.60
2022-11-06T07:56:55.572Z,11.70
2022-11-06T07:59:24.393Z,11.70
2022-11-06T08:01:56.951Z,11.70
2022-11-06T08:04:27.605Z,11.80
2022-11-06T08:07:00.806Z,11.70
2022-11-06T08:09:29.034Z,11.80
2022-11-06T08:11:57.138Z,11.80
2022-11-06T08:14:26.308Z,11.80
2022-11-06T08:16:56.571Z,11.80
2022-11-06T08:19:30.390Z,11.80
2022-11-06T08:21:58.126Z,11.80
2022-11-06T08:24:29.588Z,11.90
2022-11-06T08:26:59.007Z,11.80
2022-11-06T08:29:29.483Z,11.80
2022-11-06T08:31:59.383Z,11.90
2022-11-06T08:34:29.433Z,11.70
2022-11-06T08:36:58.135Z,11.70
2022-11-06T08:39:28.712Z,11.70
2022-11-06T08:41:58.407Z,11.80
2022-11-06T08:44:30.647Z,11.80
2022-11-06T08:46:58.297Z,11.80
2022-11-06T08:49:26.476Z,11.90
2022-11-06T08:51:54.757Z,11.90
2022-11-06T08:54:24.378Z,11.90
2022-11-06T08:56:52.259Z,11.80
2022-11-06T08:59:22.660Z,11.70
2022-11-06T09:01:52.668Z,11.80
2022-11-06T09:04:24.548Z,11.70
2022-11-06T09:06:54.864Z,11.60
2022-11-06T09:09:31.899Z,11.70
2022-11-06T09:12:06.650Z,11.70
2022-11-06T09:14:37.538Z,11.60
2022-11-06T09:17:06.221Z,11.60
2022-11-06T09:19:34.182Z,11.60
2022-11-06T09:22:07.280Z,11.70
2022-11-06T09:25:02.093Z,11.80
2022-11-06T09:27:28.631Z,11.90
2022-11-06T09:29:58.719Z,11.90
2022-11-06T09:32:28.589Z,11.90
2022-11-06T09:35:00.335Z,11.90
2022-11-06T09:37:29.472Z,11.70
2022-11-06T09:40:05.695Z,11.70
2022-11-06T09:43:58.293Z,11.60
2022-11-06T09:46:18.199Z,11.60
2022-11-06T09:49:14.599Z,11.70
2022-11-06T09:52:09.503Z,11.70
2022-11-06T09:54:46.156Z,11.70
2022-11-06T09:57:29.916Z,11.70
2022-11-06T10:00:02.658Z,11.70
2022-11-06T10:03:20.203Z,11.60
2022-11-06T10:05:52.640Z,11.60
2022-11-06T10:08:29.683Z,11.60
2022-11-06T10:11:18.006Z,11.70
2022-11-06T10:14:01.366Z,11.70
2022-11-06T10:17:14.034Z,11.70
2022-11-06T10:20:27.166Z,11.70
2022-11-06T10:23:29.297Z,11.80
2022-11-06T10:26:39.215Z,11.60
2022-11-06T10:29:47.479Z,11.60
2022-11-06T10:32:38.621Z,11.60
2022-11-06T10:35:26.146Z,11.60
2022-11-06T10:38:13.417Z,11.60
2022-11-06T10:40:45.606Z,11.60
2022-11-06T10:43:38.946Z,11.60
2022-11-06T10:46:39.912Z,11.60
2022-11-06T10:49:47.040Z,11.70
2022-11-06T10:52:58.769Z,11.70
2022-11-06T10:55:56.324Z,11.70
2022-11-06T10:58:34.695Z,11.70
2022-11-06T11:03:55.121Z,11.60
2022-11-06T11:06:26.619Z,11.70
2022-11-06T11:08:56.049Z,11.70
2022-11-06T11:11:29.831Z,11.80
2022-11-06T11:13:59.512Z,11.70
2022-11-06T11:16:40.807Z,11.80
2022-11-06T11:19:41.187Z,11.80
2022-11-06T11:22:33.325Z,11.70
2022-11-06T11:25:27.367Z,11.60
2022-11-06T11:27:59.664Z,11.60
2022-11-06T11:30:32.732Z,11.60
2022-11-06T11:33:16.843Z,11.70
2022-11-06T11:35:49.712Z,11.60
2022-11-06T11:38:22.053Z,11.60
2022-11-06T11:40:52.608Z,11.60
2022-11-06T11:43:31.164Z,11.60
2022-11-06T11:46:11.201Z,11.60
2022-11-06T11:48:58.389Z,11.60
2022-11-06T11:51:43.445Z,11.60
2022-11-06T11:54:26.251Z,11.60
2022-11-06T11:57:07.102Z,11.60
2022-11-06T11:59:49.271Z,11.70
2022-11-06T12:02:31.614Z,11.70
2022-11-06T12:05:17.248Z,11.60
2022-11-06T12:07:52.294Z,11.70
2022-11-06T12:10:44.735Z,11.80
2022-11-06T12:13:28.028Z,11.70
2022-11-06T12:16:04.985Z,11.80
2022-11-06T12:18:41.210Z,11.80
2022-11-06T12:21:31.782Z,11.80
2022-11-06T12:24:10.386Z,11.70
2022-11-06T12:27:00.284Z,11.70
2022-11-06T12:30:01.669Z,11.70
2022-11-06T12:33:52.053Z,11.60
2022-11-06T12:36:16.774Z,11.60
2022-11-06T12:39:15.749Z,11.50
2022-11-06T12:41:52.923Z,11.50
2022-11-06T12:44:29.084Z,11.50
2022-11-06T12:47:02.439Z,11.50
2022-11-06T12:50:00.363Z,11.50
2022-11-06T12:52:49.142Z,11.50
2022-11-06T12:56:05.756Z,11.50
2022-11-06T12:59:09.112Z,11.50
2022-11-06T13:02:09.361Z,11.50
2022-11-06T13:05:11.111Z,11.40
2022-11-06T13:08:22.259Z,11.40
2022-11-06T13:11:11.371Z,11.40
2022-11-06T13:14:23.248Z,11.30
2022-11-06T13:17:12.201Z,11.30
2022-11-06T13:20:02.513Z,11.30
2022-11-06T13:22:50.210Z,11.40
2022-11-06T13:25:49.317Z,11.40
2022-11-06T13:28:59.283Z,11.40
2022-11-06T13:32:00.816Z,11.40
2022-11-06T13:34:53.401Z,11.30
2022-11-06T13:37:37.921Z,11.40
2022-11-06T13:40:28.180Z,11.30
2022-11-06T13:43:20.818Z,11.40
2022-11-06T13:46:07.035Z,11.30
2022-11-06T13:49:15.986Z,11.40
2022-11-06T13:51:46.460Z,11.40
2022-11-06T13:54:25.880Z,11.30
2022-11-06T13:57:50.245Z,11.30
2022-11-06T14:00:46.630Z,11.30
2022-11-06T14:03:26.057Z,11.30
2022-11-06T14:06:29.060Z,11.30
2022-11-06T14:09:09.951Z,11.30
2022-11-06T14:11:42.822Z,11.30
2022-11-06T14:14:20.426Z,11.30
2022-11-06T14:17:12.743Z,11.40
2022-11-06T14:20:03.946Z,11.30
2022-11-06T14:22:40.549Z,11.30
2022-11-06T14:25:42.592Z,11.30
2022-11-06T14:28:09.811Z,11.30
2022-11-06T14:34:02.104Z,11.30
2022-11-06T14:36:53.709Z,11.40
2022-11-06T14:40:08.114Z,11.40
2022-11-06T14:42:40.543Z,11.40
2022-11-06T14:45:27.829Z,11.40
2022-11-06T14:47:57.336Z,11.30
2022-11-06T14:50:41.040Z,11.40
2022-11-06T14:53:48.688Z,11.30
2022-11-06T14:56:42.479Z,11.30
2022-11-06T14:59:31.511Z,11.30
2022-11-06T15:02:25.207Z,11.30
2022-11-06T15:05:21.963Z,11.30
2022-11-06T15:08:05.917Z,11.30
2022-11-06T15:10:45.885Z,11.30
2022-11-06T15:13:29.951Z,11.20
2022-11-06T15:16:15.693Z,11.30
2022-11-06T15:18:49.012Z,11.20
2022-11-06T15:21:27.218Z,11.20
2022-11-06T15:24:24.797Z,11.20
2022-11-06T15:26:57.579Z,11.20
2022-11-06T15:29:31.135Z,11.30
2022-11-06T15:32:26.596Z,11.20
2022-11-06T15:35:13.265Z,11.20
2022-11-06T15:38:03.681Z,11.20
2022-11-06T15:40:38.443Z,11.10
2022-11-06T15:43:30.212Z,11.10
2022-11-06T15:46:18.270Z,11.10
2022-11-06T15:48:47.542Z,11.10
2022-11-06T15:51:29.179Z,11.20
2022-11-06T15:53:58.660Z,11.20
2022-11-06T15:56:41.652Z,11.10
2022-11-06T15:59:24.555Z,11.10
2022-11-06T16:01:56.164Z,11.10
2022-11-06T16:04:25.926Z,11.10
2022-11-06T16:06:55.646Z,11.10
2022-11-06T16:09:26.629Z,11.10
2022-11-06T16:11:57.589Z,11.10
2022-11-06T16:14:25.641Z,11.00
2022-11-06T16:16:57.627Z,11.20
2022-11-06T16:19:38.930Z,11.30
2022-11-06T16:22:20.567Z,11.40
2022-11-06T16:25:06.903Z,11.40
2022-11-06T16:27:42.357Z,11.60
2022-11-06T16:30:25.650Z,11.60
2022-11-06T16:32:55.927Z,11.60
2022-11-06T16:35:39.175Z,11.70
2022-11-06T16:38:44.491Z,11.70
2022-11-06T16:41:39.849Z,11.70
2022-11-06T16:44:32.035Z,11.70
2022-11-06T16:47:23.548Z,11.70
2022-11-06T16:50:09.342Z,11.70
2022-11-06T16:52:42.694Z,11.50
2022-11-06T16:55:31.454Z,11.50
2022-11-06T16:58:06.467Z,11.40
2022-11-06T17:00:36.744Z,11.40
2022-11-06T17:03:08.798Z,11.40
2022-11-06T17:05:39.450Z,11.30
2022-11-06T17:08:23.281Z,11.30
2022-11-06T17:10:54.156Z,11.30
2022-11-06T17:13:35.429Z,11.30
2022-11-06T17:16:09.470Z,11.20
2022-11-06T17:18:43.557Z,11.20
2022-11-06T17:21:18.128Z,11.10
2022-11-06T17:23:46.391Z,11.20
2022-11-06T17:26:36.671Z,11.20
2022-11-06T17:29:06.362Z,11.10
2022-11-06T17:31:34.247Z,11.10
2022-11-06T17:34:11.970Z,11.10
2022-11-06T17:36:39.901Z,11.20
2022-11-06T17:39:11.240Z,11.20
2022-11-06T17:41:40.512Z,11.20
2022-11-06T17:44:11.366Z,11.20
2022-11-06T17:47:00.587Z,11.20
2022-11-06T17:49:27.679Z,11.20
2022-11-06T17:52:03.591Z,11.20
2022-11-06T17:54:39.100Z,11.20
2022-11-06T17:57:09.980Z,11.20
2022-11-06T17:59:40.163Z,11.10
2022-11-06T18:04:57.843Z,11.10
2022-11-06T18:07:31.155Z,11.00
2022-11-06T18:10:01.456Z,11.00
2022-11-06T18:12:31.917Z,11.00
2022-11-06T18:15:00.667Z,11.00
2022-11-06T18:17:33.244Z,11.00
2022-11-06T18:20:00.678Z,11.00
2022-11-06T18:22:32.446Z,11.00
2022-11-06T18:25:00.610Z,11.00
2022-11-06T18:27:31.952Z,11.10
2022-11-06T18:29:59.413Z,11.10
2022-11-06T18:32:28.297Z,11.10
2022-11-06T18:34:55.737Z,11.00
2022-11-06T18:37:26.447Z,11.10
2022-11-06T18:39:56.260Z,11.10
2022-11-06T18:42:24.947Z,11.10
2022-11-06T18:44:56.372Z,11.10
2022-11-06T18:47:27.416Z,11.10
2022-11-06T18:49:55.759Z,11.10
2022-11-06T18:52:51.668Z,11.10
2022-11-06T18:55:16.901Z,11.10
2022-11-06T18:57:44.692Z,11.10
2022-11-06T19:00:15.129Z,11.10
2022-11-06T19:02:44.451Z,11.20
2022-11-06T19:05:18.269Z,11.20
2022-11-06T19:07:51.986Z,11.20
2022-11-06T19:10:22.737Z,11.10
2022-11-06T19:12:51.071Z,11.10
2022-11-06T19:15:25.266Z,11.10
2022-11-06T19:17:55.567Z,11.00
2022-11-06T19:20:25.918Z,11.00
2022-11-06T19:22:55.892Z,11.00
2022-11-06T19:25:24.677Z,11.10
2022-11-06T19:27:55.890Z,11.10
2022-11-06T19:30:26.114Z,11.10
2022-11-06T19:32:56.064Z,11.00
2022-11-06T19:35:28.366Z,11.10
2022-11-06T19:37:58.259Z,11.20
2022-11-06T19:40:27.597Z,11.10
2022-11-06T19:42:59.799Z,11.20
2022-11-06T19:45:29.368Z,11.20
2022-11-06T19:48:01.223Z,11.20
2022-11-06T19:50:58.280Z,11.20
2022-11-06T19:53:22.020Z,11.20
2022-11-06T19:55:51.057Z,11.10
2022-11-06T19:58:23.982Z,11.10
2022-11-06T20:00:54.572Z,11.10
2022-11-06T20:03:25.196Z,11.10
2022-11-06T20:06:01.259Z,11.10
2022-11-06T20:08:39.441Z,11.10
2022-11-06T20:11:15.265Z,11.10
2022-11-06T20:13:46.355Z,11.10
2022-11-06T20:16:22.429Z,11.20
2022-11-06T20:18:56.647Z,11.10
2022-11-06T20:21:30.852Z,11.10
2022-11-06T20:24:00.859Z,11.10
2022-11-06T20:26:30.218Z,11.20
2022-11-06T20:29:00.371Z,11.30
2022-11-06T20:31:30.346Z,11.30
2022-11-06T20:34:00.011Z,11.30
2022-11-06T20:36:31.199Z,11.30
2022-11-06T20:39:02.874Z,11.30
2022-11-06T20:41:33.411Z,11.40
2022-11-06T20:44:03.354Z,11.30
2022-11-06T20:46:31.832Z,11.30
2022-11-06T20:49:02.547Z,11.40
2022-11-06T20:51:59.932Z,11.40
2022-11-06T20:54:29.000Z,11.40
2022-11-06T20:56:59.647Z,11.40
2022-11-06T20:59:31.670Z,11.40
2022-11-06T21:02:02.795Z,11.50
2022-11-06T21:04:31.287Z,11.50
2022-11-06T21:07:02.412Z,11.50
2022-11-06T21:09:29.958Z,11.50
2022-11-06T21:12:00.094Z,11.50
2022-11-06T21:14:33.189Z,11.50
2022-11-06T21:17:05.583Z,11.50
2022-11-06T21:19:38.955Z,11.60
2022-11-06T21:22:09.577Z,11.60
2022-11-06T21:24:41.009Z,11.60
2022-11-06T21:27:11.589Z,11.60
2022-11-06T21:29:43.897Z,11.60
2022-11-06T21:32:14.548Z,11.60
2022-11-06T21:34:45.443Z,11.60
2022-11-06T21:37:14.368Z,11.50
2022-11-06T21:39:41.549Z,11.50
2022-11-06T21:42:12.082Z,11.60
2022-11-06T21:44:44.267Z,11.60
2022-11-06T21:47:14.843Z,11.60
2022-11-06T21:49:56.436Z,11.60
2022-11-06T21:52:43.525Z,11.60
2022-11-06T21:55:30.297Z,11.60
2022-11-06T21:57:57.416Z,11.60
2022-11-06T22:00:26.198Z,11.60
2022-11-06T22:02:53.448Z,11.50
2022-11-06T22:05:25.162Z,11.40
2022-11-06T22:07:56.220Z,11.40
2022-11-06T22:10:30.594Z,11.30
2022-11-06T22:13:00.812Z,11.30
2022-11-06T22:15:30.102Z,11.30
2022-11-06T22:18:02.839Z,11.40
2022-11-06T22:20:33.980Z,11.30
2022-11-06T22:23:20.135Z,11.30
2022-11-06T22:25:51.059Z,11.30
2022-11-06T22:28:21.490Z,11.20
2022-11-06T22:30:52.221Z,11.20
2022-11-06T22:33:20.691Z,11.20
2022-11-06T22:35:50.525Z,11.20
2022-11-06T22:38:20.836Z,11.20
2022-11-06T22:41:02.638Z,11.20
2022-11-06T22:43:33.017Z,11.20
2022-11-06T22:46:07.122Z,11.20
2022-11-06T22:48:39.486Z,11.20
2022-11-06T22:51:13.055Z,11.20
2022-11-06T22:53:44.899Z,11.20
2022-11-06T22:56:14.374Z,11.10
2022-11-06T22:58:48.998Z,11.20
2022-11-06T23:01:20.952Z,11.20
2022-11-06T23:03:51.994Z,11.20
2022-11-06T23:06:20.573Z,11.20
2022-11-06T23:08:48.339Z,11.10
2022-11-06T23:11:18.004Z,11.20
2022-11-06T23:13:46.308Z,11.20
2022-11-06T23:16:43.460Z,11.10
2022-11-06T23:19:14.097Z,11.10
2022-11-06T23:21:45.783Z,11.20
2022-11-06T23:24:16.450Z,11.10
2022-11-06T23:26:47.139Z,11.10
2022-11-06T23:29:17.668Z,11.20
2022-11-06T23:31:46.970Z,11.10
2022-11-06T23:34:18.499Z,11.10
2022-11-06T23:36:46.444Z,11.10
2022-11-06T23:39:17.372Z,11.10
2022-11-06T23:41:47.371Z,11.00
2022-11-06T23:44:36.699Z,11.00
2022-11-06T23:47:06.305Z,11.00
2022-11-06T23:49:36.534Z,11.00
2022-11-06T23:52:07.738Z,11.10
2022-11-06T23:54:38.570Z,11.10
2022-11-06T23:57:10.660Z,11.10
2022-11-06T23:59:43.082Z,11.10
